Terminal Aerodrome Forecast
Issued by NWS Knoxville/Tri Cities, TN

Home | Current Version | Previous Version | Text Only | Print | Product List | Glossary On
Versions: 1 2 3 4 5 6 7 8 9 10 11 12 13 14
000
FTUS44 KMRX 191720
TAFTYS
TAF
KTYS 191720Z 1918/2018 02004KT P6SM BKN035
      TEMPO 1918/1919 6SM BR BKN025
     FM192100 02003KT P6SM SCT035
     FM200700 00000KT 4SM BR SCT020
     FM200900 00000KT 2SM BR BKN010
     FM201400 03003KT P6SM SKC=

USA.gov is the U.S. government's official web portal to all federal, state and local government web resources and services.